Time;durP1;ratioP1;P1;durP2;ratioP2;P2;SDS_P1;SDS_P2;PMS_P1;PMS_P2;Temp;Humidity;BMP_temperature;BMP_pressure;BME280_temperature;BME280_humidity;BME280_pressure;Samples;Min_cycle;Max_cycle;Signal;HPM_P1;HPM_P2
2023/05/01 00:00:10;;;;;;;9.10;4.07;;;;;;;;;;5035161;28;20217;-68
2023/05/01 00:02:36;;;;;;;8.75;4.93;;;;;;;;;;5036346;28;20186;-68
2023/05/01 00:05:02;;;;;;;9.95;5.00;;;;;;;;;;5048492;28;20243;-68
2023/05/01 00:07:29;;;;;;;8.35;4.95;;;;;;;;;;5032111;28;20186;-69
2023/05/01 00:09:56;;;;;;;9.30;4.50;;;;;;;;;;5034959;28;20218;-68
2023/05/01 00:12:21;;;;;;;8.57;4.40;;;;;;;;;;5030810;28;20251;-68
2023/05/01 00:14:47;;;;;;;9.32;4.88;;;;;;;;;;5037476;28;20296;-68
2023/05/01 00:17:12;;;;;;;12.95;4.82;;;;;;;;;;5041985;28;20622;-68
2023/05/01 00:19:38;;;;;;;6.82;4.55;;;;;;;;;;5041681;28;20190;-67
2023/05/01 00:22:03;;;;;;;8.63;4.43;;;;;;;;;;5041400;28;20280;-68
2023/05/01 00:24:28;;;;;;;8.77;4.47;;;;;;;;;;5035913;28;20221;-67
2023/05/01 00:26:54;;;;;;;8.15;4.50;;;;;;;;;;5045216;28;20604;-67
2023/05/01 00:29:20;;;;;;;7.88;4.30;;;;;;;;;;5044894;28;20201;-67
2023/05/01 00:31:46;;;;;;;7.60;4.30;;;;;;;;;;5054519;28;20217;-67
2023/05/01 00:34:11;;;;;;;7.68;4.95;;;;;;;;;;5064744;28;20212;-68
2023/05/01 00:36:37;;;;;;;8.20;4.53;;;;;;;;;;5047539;28;20193;-68
2023/05/01 00:39:03;;;;;;;8.82;4.88;;;;;;;;;;5039012;28;20246;-68
2023/05/01 00:41:28;;;;;;;10.25;4.35;;;;;;;;;;5041230;28;20542;-67
2023/05/01 00:43:53;;;;;;;11.50;4.32;;;;;;;;;;5052363;28;20520;-68
2023/05/01 00:46:20;;;;;;;7.50;4.47;;;;;;;;;;5043061;28;20234;-68
2023/05/01 00:48:45;;;;;;;9.82;4.53;;;;;;;;;;5042925;28;20197;-68
2023/05/01 00:51:11;;;;;;;10.27;4.83;;;;;;;;;;5047561;28;20585;-68
2023/05/01 00:53:40;;;;;;;7.20;4.35;;;;;;;;;;5038239;28;20190;-68
2023/05/01 00:56:06;;;;;;;9.32;4.78;;;;;;;;;;5044300;28;20189;-68
2023/05/01 00:58:31;;;;;;;8.95;4.60;;;;;;;;;;5047741;28;20275;-68
2023/05/01 01:00:57;;;;;;;8.55;4.40;;;;;;;;;;5046901;28;20648;-67
2023/05/01 01:03:22;;;;;;;13.93;4.57;;;;;;;;;;5044727;28;20197;-68
2023/05/01 01:05:55;;;;;;;8.00;4.83;;;;;;;;;;5049098;28;20253;-68
2023/05/01 01:08:32;;;;;;;8.73;5.23;;;;;;;;;;5042864;28;20744;-68
2023/05/01 01:11:21;;;;;;;8.80;4.77;;;;;;;;;;5033008;28;20697;-68
2023/05/01 01:14:10;;;;;;;7.93;4.63;;;;;;;;;;5030849;28;20194;-67
2023/05/01 01:16:44;;;;;;;9.23;4.60;;;;;;;;;;5041854;28;20186;-68
2023/05/01 01:19:43;;;;;;;11.67;4.93;;;;;;;;;;5033405;28;20213;-67
2023/05/01 01:22:17;;;;;;;14.20;4.90;;;;;;;;;;5039554;28;20285;-69
2023/05/01 01:25:21;;;;;;;10.60;5.17;;;;;;;;;;5033984;28;20189;-67
2023/05/01 01:27:57;;;;;;;12.07;4.63;;;;;;;;;;5039559;28;20655;-67
2023/05/01 01:30:28;;;;;;;15.03;5.37;;;;;;;;;;5045082;28;20227;-68
2023/05/01 01:33:23;;;;;;;8.83;5.37;;;;;;;;;;5048003;28;20548;-68
2023/05/01 01:35:57;;;;;;;13.83;5.27;;;;;;;;;;5037732;28;20572;-67
2023/05/01 01:38:56;;;;;;;8.83;5.10;;;;;;;;;;5047848;28;20251;-67
2023/05/01 01:41:30;;;;;;;9.53;5.00;;;;;;;;;;5053808;28;20190;-67
2023/05/01 01:44:05;;;;;;;9.60;5.00;;;;;;;;;;5047453;28;20212;-68
2023/05/01 01:46:35;;;;;;;8.07;4.80;;;;;;;;;;5047492;28;20740;-67
2023/05/01 01:49:05;;;;;;;8.70;4.57;;;;;;;;;;5044140;28;20190;-67
2023/05/01 01:51:30;;;;;;;9.75;5.15;;;;;;;;;;5039435;28;20771;-68
2023/05/01 01:53:59;;;;;;;10.37;4.90;;;;;;;;;;5043271;28;20226;-68
2023/05/01 01:56:26;;;;;;;10.47;5.57;;;;;;;;;;5044209;28;20186;-68
2023/05/01 01:58:52;;;;;;;10.07;5.20;;;;;;;;;;5042325;28;20227;-68
2023/05/01 02:01:20;;;;;;;12.77;5.57;;;;;;;;;;5047382;28;20224;-68
2023/05/01 02:03:46;;;;;;;9.90;5.30;;;;;;;;;;5046973;28;20217;-68
2023/05/01 02:06:12;;;;;;;9.67;4.97;;;;;;;;;;5044386;28;20201;-68
2023/05/01 02:08:41;;;;;;;10.17;5.60;;;;;;;;;;5039982;28;20537;-68
2023/05/01 02:11:07;;;;;;;10.10;5.40;;;;;;;;;;5038273;28;20226;-69
2023/05/01 02:13:35;;;;;;;11.90;5.80;;;;;;;;;;5035068;28;20199;-65
2023/05/01 02:16:03;;;;;;;8.43;5.20;;;;;;;;;;5049480;28;20219;-66
2023/05/01 02:18:30;;;;;;;9.20;5.43;;;;;;;;;;5042883;28;20282;-67
2023/05/01 02:20:59;;;;;;;9.70;5.23;;;;;;;;;;5046282;28;20273;-66
2023/05/01 02:23:27;;;;;;;14.80;5.00;;;;;;;;;;5043890;28;20198;-67
2023/05/01 02:25:55;;;;;;;13.00;5.33;;;;;;;;;;5040788;28;20224;-68
2023/05/01 02:28:23;;;;;;;14.00;6.10;;;;;;;;;;5044902;28;20224;-68
2023/05/01 02:30:48;;;;;;;10.63;5.40;;;;;;;;;;5042330;28;20245;-68
2023/05/01 02:33:14;;;;;;;9.50;5.67;;;;;;;;;;5045716;28;20601;-68
2023/05/01 02:35:40;;;;;;;12.20;5.70;;;;;;;;;;5048048;28;20197;-68
2023/05/01 02:38:06;;;;;;;10.13;5.60;;;;;;;;;;5050848;28;20546;-68
2023/05/01 02:40:34;;;;;;;10.87;5.37;;;;;;;;;;5038634;28;20190;-68
2023/05/01 02:43:03;;;;;;;13.10;6.30;;;;;;;;;;5040723;28;20213;-67
2023/05/01 02:45:30;;;;;;;10.40;5.15;;;;;;;;;;5044803;28;20232;-67
2023/05/01 02:47:59;;;;;;;11.53;5.70;;;;;;;;;;5039752;28;20190;-68
2023/05/01 02:50:26;;;;;;;9.23;5.83;;;;;;;;;;5040761;28;20725;-67
2023/05/01 02:52:52;;;;;;;12.68;6.13;;;;;;;;;;5042113;28;20228;-68
2023/05/01 02:55:17;;;;;;;9.77;6.20;;;;;;;;;;5039342;28;20189;-68
2023/05/01 02:57:43;;;;;;;10.55;5.68;;;;;;;;;;5039450;28;20189;-68
2023/05/01 03:00:09;;;;;;;9.68;6.22;;;;;;;;;;5037006;28;20217;-68
2023/05/01 03:02:34;;;;;;;10.83;4.90;;;;;;;;;;5042301;28;20205;-68
2023/05/01 03:04:59;;;;;;;12.52;6.32;;;;;;;;;;5028675;28;20494;-68
2023/05/01 03:07:25;;;;;;;11.87;5.60;;;;;;;;;;5045141;28;20205;-68
2023/05/01 03:09:50;;;;;;;8.87;5.50;;;;;;;;;;5045635;28;20598;-68
2023/05/01 03:12:16;;;;;;;12.57;6.13;;;;;;;;;;5041193;28;20201;-68
2023/05/01 03:14:41;;;;;;;10.65;5.60;;;;;;;;;;5036751;28;20217;-70
2023/05/01 03:17:06;;;;;;;10.80;5.87;;;;;;;;;;5034542;28;20205;-68
2023/05/01 03:19:33;;;;;;;12.07;5.88;;;;;;;;;;5031707;28;20194;-68
2023/05/01 03:21:58;;;;;;;9.32;5.60;;;;;;;;;;5045142;28;20514;-69
2023/05/01 03:24:24;;;;;;;11.63;5.90;;;;;;;;;;5044063;28;20193;-69
2023/05/01 03:26:49;;;;;;;9.37;5.70;;;;;;;;;;5045825;28;20272;-68
2023/05/01 03:29:15;;;;;;;12.77;5.80;;;;;;;;;;5040372;28;20255;-67
2023/05/01 03:31:40;;;;;;;9.47;6.10;;;;;;;;;;5040374;28;20230;-67
2023/05/01 03:34:06;;;;;;;13.93;6.50;;;;;;;;;;5048149;28;20247;-67
2023/05/01 03:36:32;;;;;;;12.70;5.83;;;;;;;;;;5047483;28;20193;-67
2023/05/01 03:38:58;;;;;;;14.60;5.90;;;;;;;;;;5038288;28;20215;-67
2023/05/01 03:41:24;;;;;;;11.75;6.20;;;;;;;;;;5046622;28;20570;-67
2023/05/01 03:43:49;;;;;;;11.50;6.20;;;;;;;;;;5044223;28;20247;-67
2023/05/01 03:46:14;;;;;;;11.47;5.90;;;;;;;;;;5045122;28;20743;-67
2023/05/01 03:48:40;;;;;;;15.40;6.03;;;;;;;;;;5046575;28;20199;-67
2023/05/01 03:51:05;;;;;;;14.38;6.93;;;;;;;;;;5045075;28;20731;-67
2023/05/01 03:53:31;;;;;;;11.13;6.88;;;;;;;;;;5046815;28;20588;-67
2023/05/01 03:55:57;;;;;;;11.65;7.10;;;;;;;;;;5040477;28;20194;-67
2023/05/01 03:58:22;;;;;;;14.83;6.23;;;;;;;;;;5043555;28;20649;-67
2023/05/01 04:00:48;;;;;;;11.70;6.90;;;;;;;;;;5038120;28;20221;-68
2023/05/01 04:03:13;;;;;;;15.63;6.40;;;;;;;;;;5045834;28;20225;-67
2023/05/01 04:05:39;;;;;;;12.75;6.00;;;;;;;;;;5044076;28;20202;-67
2023/05/01 04:08:05;;;;;;;12.23;6.77;;;;;;;;;;5038021;28;20610;-68
2023/05/01 04:10:30;;;;;;;13.07;6.63;;;;;;;;;;5037117;28;20729;-67
2023/05/01 04:12:55;;;;;;;12.10;6.47;;;;;;;;;;5033671;28;20201;-68
2023/05/01 04:15:21;;;;;;;14.90;6.60;;;;;;;;;;5051707;28;20193;-68
2023/05/01 04:17:47;;;;;;;12.50;6.43;;;;;;;;;;5047286;28;20825;-67
2023/05/01 04:20:12;;;;;;;14.63;6.95;;;;;;;;;;5042346;28;20268;-67
2023/05/01 04:22:38;;;;;;;12.02;6.18;;;;;;;;;;5049680;28;20243;-67
2023/05/01 04:25:03;;;;;;;10.23;6.53;;;;;;;;;;5045837;28;20646;-67
2023/05/01 04:27:29;;;;;;;13.43;6.65;;;;;;;;;;5045694;28;20276;-68
2023/05/01 04:29:56;;;;;;;10.50;5.93;;;;;;;;;;5061185;28;20193;-68
2023/05/01 04:32:21;;;;;;;13.00;6.20;;;;;;;;;;5048678;28;20193;-68
2023/05/01 04:34:46;;;;;;;12.57;6.25;;;;;;;;;;5054459;28;20276;-68
2023/05/01 04:37:13;;;;;;;13.98;6.82;;;;;;;;;;5044471;28;20190;-68
2023/05/01 04:39:38;;;;;;;13.38;7.20;;;;;;;;;;5040127;28;20231;-68
2023/05/01 04:42:04;;;;;;;11.85;6.35;;;;;;;;;;5047572;28;20530;-68
2023/05/01 04:44:30;;;;;;;9.88;6.03;;;;;;;;;;5048990;28;20715;-71
2023/05/01 04:46:55;;;;;;;12.95;6.63;;;;;;;;;;5046436;28;20617;-68
2023/05/01 04:49:21;;;;;;;13.38;6.60;;;;;;;;;;5042503;28;20209;-68
2023/05/01 04:51:46;;;;;;;10.50;6.15;;;;;;;;;;5042460;28;20312;-68
2023/05/01 04:54:12;;;;;;;15.05;6.32;;;;;;;;;;5043661;28;20229;-68
2023/05/01 04:56:37;;;;;;;10.88;6.57;;;;;;;;;;5047574;28;20530;-68
2023/05/01 04:59:02;;;;;;;10.55;6.45;;;;;;;;;;5042589;28;20194;-68
2023/05/01 05:01:28;;;;;;;13.70;6.60;;;;;;;;;;5041823;28;20728;-68
2023/05/01 05:03:53;;;;;;;13.63;7.68;;;;;;;;;;5030004;28;20225;-68
2023/05/01 05:06:19;;;;;;;13.95;6.45;;;;;;;;;;4350587;28;10000879;-68
2023/05/01 05:08:45;;;;;;;10.63;6.80;;;;;;;;;;5048398;28;20243;-68
2023/05/01 05:11:10;;;;;;;11.25;6.80;;;;;;;;;;5051708;28;20540;-69
2023/05/01 05:13:35;;;;;;;14.00;7.05;;;;;;;;;;5053704;28;20193;-68
2023/05/01 05:16:01;;;;;;;15.68;6.35;;;;;;;;;;5044135;28;20289;-68
2023/05/01 05:18:26;;;;;;;9.35;5.70;;;;;;;;;;5037533;28;20240;-68
2023/05/01 05:20:52;;;;;;;11.85;6.90;;;;;;;;;;5043570;28;20185;-68
2023/05/01 05:23:17;;;;;;;11.43;6.72;;;;;;;;;;5041899;28;20678;-68
2023/05/01 05:25:42;;;;;;;12.43;6.40;;;;;;;;;;5027989;28;20194;-68
2023/05/01 05:28:08;;;;;;;13.13;6.78;;;;;;;;;;5045192;28;20197;-68
2023/05/01 05:30:33;;;;;;;10.05;6.55;;;;;;;;;;5043379;28;20254;-68
2023/05/01 05:32:59;;;;;;;13.15;6.93;;;;;;;;;;5037136;28;20215;-68
2023/05/01 05:35:26;;;;;;;9.93;6.32;;;;;;;;;;5036232;28;20221;-68
2023/05/01 05:37:51;;;;;;;9.70;6.22;;;;;;;;;;5046643;28;20561;-68
2023/05/01 05:40:18;;;;;;;11.55;6.63;;;;;;;;;;5042618;28;20177;-68
2023/05/01 05:42:43;;;;;;;10.73;6.75;;;;;;;;;;5034707;28;20185;-68
2023/05/01 05:45:09;;;;;;;10.98;6.65;;;;;;;;;;5041418;28;20229;-68
2023/05/01 05:47:34;;;;;;;10.90;6.03;;;;;;;;;;5043014;28;20716;-68
2023/05/01 05:49:59;;;;;;;10.98;6.38;;;;;;;;;;5046671;28;20208;-68
2023/05/01 05:52:25;;;;;;;11.43;5.68;;;;;;;;;;5039276;28;20246;-68
2023/05/01 05:54:50;;;;;;;9.60;6.13;;;;;;;;;;5038057;28;20189;-68
2023/05/01 05:57:15;;;;;;;10.50;5.95;;;;;;;;;;5039812;28;20961;-68
2023/05/01 05:59:41;;;;;;;11.20;6.47;;;;;;;;;;5042182;28;20265;-68
2023/05/01 06:02:06;;;;;;;12.50;6.82;;;;;;;;;;5046575;28;20213;-68
2023/05/01 06:04:32;;;;;;;11.25;6.78;;;;;;;;;;5050099;28;20243;-68
2023/05/01 06:06:58;;;;;;;10.45;6.57;;;;;;;;;;5047461;28;20190;-68
2023/05/01 06:09:25;;;;;;;12.55;6.43;;;;;;;;;;5035727;28;20190;-68
2023/05/01 06:11:50;;;;;;;13.80;6.20;;;;;;;;;;5043973;28;20201;-68
2023/05/01 06:14:15;;;;;;;9.32;6.10;;;;;;;;;;5049754;28;20204;-69
2023/05/01 06:16:41;;;;;;;8.95;6.65;;;;;;;;;;5045513;28;20534;-69
2023/05/01 06:19:09;;;;;;;11.30;5.93;;;;;;;;;;5046832;28;20645;-69
2023/05/01 06:21:34;;;;;;;11.23;6.20;;;;;;;;;;5041118;28;20197;-69
2023/05/01 06:23:59;;;;;;;12.65;5.93;;;;;;;;;;5039261;28;20185;-69
2023/05/01 06:26:25;;;;;;;10.15;5.72;;;;;;;;;;5049357;28;20190;-69
2023/05/01 06:28:50;;;;;;;12.27;6.60;;;;;;;;;;5052220;28;20481;-68
2023/05/01 06:31:16;;;;;;;13.43;5.82;;;;;;;;;;5059826;28;20585;-68
2023/05/01 06:33:41;;;;;;;10.80;6.13;;;;;;;;;;5054988;28;20181;-69
2023/05/01 06:36:07;;;;;;;10.90;6.03;;;;;;;;;;5046701;28;20719;-69
2023/05/01 06:38:32;;;;;;;11.70;5.97;;;;;;;;;;5039041;28;20539;-69
2023/05/01 06:40:58;;;;;;;12.20;6.38;;;;;;;;;;5043893;28;20281;-68
2023/05/01 06:43:29;;;;;;;9.27;5.50;;;;;;;;;;5041183;28;20197;-68
2023/05/01 06:45:55;;;;;;;6.75;4.60;;;;;;;;;;5035772;28;20217;-68
2023/05/01 06:48:20;;;;;;;9.73;5.25;;;;;;;;;;5040737;28;20195;-68
2023/05/01 06:50:45;;;;;;;11.73;5.50;;;;;;;;;;5044110;28;20244;-68
2023/05/01 06:53:11;;;;;;;8.75;5.20;;;;;;;;;;5039199;28;20673;-68
2023/05/01 06:55:36;;;;;;;11.27;5.68;;;;;;;;;;5043953;28;20630;-68
2023/05/01 06:58:03;;;;;;;7.22;4.93;;;;;;;;;;5030627;28;20201;-69
2023/05/01 07:00:28;;;;;;;10.60;5.07;;;;;;;;;;5042549;28;20700;-68
2023/05/01 07:02:53;;;;;;;12.15;4.93;;;;;;;;;;5042400;28;20209;-66
2023/05/01 07:05:19;;;;;;;9.43;5.10;;;;;;;;;;5041492;28;20194;-68
2023/05/01 07:07:44;;;;;;;10.55;5.45;;;;;;;;;;5039571;28;20185;-68
2023/05/01 07:10:10;;;;;;;8.55;5.40;;;;;;;;;;5037991;28;20221;-68
2023/05/01 07:12:35;;;;;;;8.90;4.97;;;;;;;;;;5046725;28;20570;-67
2023/05/01 07:15:01;;;;;;;8.85;4.65;;;;;;;;;;5035493;28;20204;-67
2023/05/01 07:17:28;;;;;;;8.15;4.93;;;;;;;;;;5045371;28;20277;-68
2023/05/01 07:19:53;;;;;;;11.30;5.13;;;;;;;;;;5031537;28;20261;-68
2023/05/01 07:22:18;;;;;;;9.10;4.97;;;;;;;;;;5040768;28;20276;-68
2023/05/01 07:24:44;;;;;;;8.50;5.18;;;;;;;;;;5039564;28;20213;-68
2023/05/01 07:27:09;;;;;;;8.27;4.50;;;;;;;;;;5041048;28;20285;-68
2023/05/01 07:29:37;;;;;;;14.73;4.93;;;;;;;;;;5035687;28;20190;-69
2023/05/01 07:32:04;;;;;;;11.45;4.63;;;;;;;;;;5046122;28;20338;-69
2023/05/01 07:34:30;;;;;;;8.38;4.75;;;;;;;;;;5040243;28;20227;-69
2023/05/01 07:36:55;;;;;;;10.57;4.68;;;;;;;;;;5040310;28;20220;-69
2023/05/01 07:39:21;;;;;;;11.38;4.47;;;;;;;;;;5032389;28;20277;-68
2023/05/01 07:41:46;;;;;;;12.68;5.22;;;;;;;;;;5041102;28;20459;-69
2023/05/01 07:44:12;;;;;;;11.70;4.53;;;;;;;;;;5061072;28;20248;-68
2023/05/01 07:46:37;;;;;;;11.32;4.82;;;;;;;;;;5050009;28;20229;-69
2023/05/01 07:49:03;;;;;;;8.02;4.60;;;;;;;;;;5047622;28;20208;-68
2023/05/01 07:51:28;;;;;;;11.13;5.45;;;;;;;;;;5037801;28;20317;-68
2023/05/01 07:53:54;;;;;;;8.85;4.95;;;;;;;;;;5034433;28;20248;-69
2023/05/01 07:56:20;;;;;;;9.95;4.78;;;;;;;;;;5048895;28;20711;-68
2023/05/01 07:58:45;;;;;;;7.88;4.28;;;;;;;;;;5057886;28;20246;-69
2023/05/01 08:01:11;;;;;;;11.32;4.90;;;;;;;;;;5051788;28;20205;-68
2023/05/01 08:03:36;;;;;;;7.25;4.60;;;;;;;;;;5047756;28;20202;-68
2023/05/01 08:06:02;;;;;;;7.35;4.30;;;;;;;;;;5044972;28;20221;-68
2023/05/01 08:08:27;;;;;;;9.27;4.65;;;;;;;;;;5056679;28;20200;-68
2023/05/01 08:10:53;;;;;;;9.98;4.47;;;;;;;;;;5043539;28;20214;-68
2023/05/01 08:13:18;;;;;;;11.82;4.35;;;;;;;;;;5050153;28;20194;-68
2023/05/01 08:15:46;;;;;;;7.50;4.40;;;;;;;;;;5039424;28;20704;-69
2023/05/01 08:18:12;;;;;;;7.00;4.07;;;;;;;;;;5052040;28;20193;-68
2023/05/01 08:20:37;;;;;;;8.70;4.15;;;;;;;;;;5056622;28;20182;-68
2023/05/01 08:23:03;;;;;;;14.05;4.63;;;;;;;;;;5038894;28;20204;-69
2023/05/01 08:25:30;;;;;;;8.32;4.50;;;;;;;;;;5039432;28;20204;-68
2023/05/01 08:27:55;;;;;;;8.30;4.20;;;;;;;;;;5046424;28;20197;-69
2023/05/01 08:30:21;;;;;;;8.05;4.05;;;;;;;;;;5037094;28;20700;-67
2023/05/01 08:32:46;;;;;;;9.55;4.18;;;;;;;;;;5040546;28;20339;-68
2023/05/01 08:35:12;;;;;;;12.90;4.60;;;;;;;;;;5048059;28;20192;-68
2023/05/01 08:37:37;;;;;;;8.25;4.22;;;;;;;;;;5045517;28;20295;-68
2023/05/01 08:40:07;;;;;;;12.23;4.78;;;;;;;;;;5033975;28;20216;-68
2023/05/01 08:42:35;;;;;;;10.30;3.95;;;;;;;;;;5044231;28;20657;-68
2023/05/01 08:45:03;;;;;;;9.40;4.63;;;;;;;;;;5043897;28;20692;-68
2023/05/01 08:47:29;;;;;;;6.78;4.13;;;;;;;;;;5047848;28;20278;-68
2023/05/01 08:49:58;;;;;;;9.80;4.05;;;;;;;;;;5050466;28;20205;-67
2023/05/01 08:52:25;;;;;;;6.82;3.90;;;;;;;;;;5046203;28;20677;-68
2023/05/01 08:54:55;;;;;;;9.55;4.03;;;;;;;;;;5042973;28;20192;-68
2023/05/01 08:57:21;;;;;;;6.00;3.90;;;;;;;;;;5048407;28;20644;-68
2023/05/01 08:59:47;;;;;;;10.50;4.35;;;;;;;;;;5042190;28;20212;-68
2023/05/01 09:02:14;;;;;;;5.63;4.32;;;;;;;;;;5053308;28;20180;-69
2023/05/01 09:04:40;;;;;;;7.95;4.28;;;;;;;;;;5038902;28;20189;-68
2023/05/01 09:07:06;;;;;;;9.02;4.30;;;;;;;;;;5041628;28;20194;-68
2023/05/01 09:09:32;;;;;;;7.70;4.38;;;;;;;;;;5041120;28;20667;-69
2023/05/01 09:12:10;;;;;;;8.60;4.30;;;;;;;;;;5039745;28;20725;-68
2023/05/01 09:14:36;;;;;;;8.88;4.07;;;;;;;;;;5055371;28;20192;-68
2023/05/01 09:17:02;;;;;;;7.43;4.53;;;;;;;;;;5045151;28;20247;-68
2023/05/01 09:19:27;;;;;;;10.02;4.97;;;;;;;;;;5044147;28;20600;-69
2023/05/01 09:21:54;;;;;;;9.18;4.10;;;;;;;;;;5039834;28;20213;-68
2023/05/01 09:24:23;;;;;;;8.73;4.50;;;;;;;;;;5054523;28;20235;-68
2023/05/01 09:26:48;;;;;;;8.32;4.63;;;;;;;;;;5047073;28;20194;-68
2023/05/01 09:29:38;;;;;;;9.13;4.70;;;;;;;;;;5054407;28;20193;-68
2023/05/01 09:32:12;;;;;;;6.72;4.57;;;;;;;;;;5050504;28;20216;-69
2023/05/01 09:34:37;;;;;;;6.93;4.60;;;;;;;;;;5046638;28;20189;-69
2023/05/01 09:37:02;;;;;;;7.65;4.30;;;;;;;;;;5049691;28;20200;-68
2023/05/01 09:39:28;;;;;;;10.13;4.80;;;;;;;;;;5043858;28;20186;-69
2023/05/01 09:41:54;;;;;;;8.70;4.65;;;;;;;;;;5039138;28;20190;-68
2023/05/01 09:44:20;;;;;;;10.15;4.57;;;;;;;;;;5044356;28;20205;-69
2023/05/01 09:46:46;;;;;;;7.28;4.93;;;;;;;;;;5054605;28;20232;-68
2023/05/01 09:49:11;;;;;;;9.15;5.28;;;;;;;;;;5040921;28;20571;-69
2023/05/01 09:51:37;;;;;;;10.80;4.95;;;;;;;;;;5042907;28;20206;-69
2023/05/01 09:54:03;;;;;;;6.45;4.78;;;;;;;;;;5053219;28;20194;-68
2023/05/01 09:56:31;;;;;;;9.35;5.32;;;;;;;;;;4340592;28;10000845;-68
2023/05/01 09:59:18;;;;;;;8.48;4.75;;;;;;;;;;5036844;28;20873;-68
2023/05/01 10:01:45;;;;;;;11.40;5.03;;;;;;;;;;5052786;28;20711;-68
2023/05/01 10:04:12;;;;;;;9.23;5.22;;;;;;;;;;5044065;28;20208;-68
2023/05/01 10:06:39;;;;;;;7.78;5.05;;;;;;;;;;5043642;28;20572;-68
2023/05/01 10:09:16;;;;;;;8.32;5.28;;;;;;;;;;5038101;28;20216;-68
2023/05/01 10:11:50;;;;;;;10.05;5.00;;;;;;;;;;5038737;28;20708;-68
2023/05/01 10:14:16;;;;;;;6.78;4.68;;;;;;;;;;5039223;28;20195;-68
2023/05/01 10:16:42;;;;;;;11.27;4.90;;;;;;;;;;5032825;28;20186;-68
2023/05/01 10:19:08;;;;;;;7.50;5.30;;;;;;;;;;5036346;28;20660;-68
2023/05/01 10:21:34;;;;;;;8.93;5.35;;;;;;;;;;5036577;28;20181;-68
2023/05/01 10:24:04;;;;;;;7.68;4.72;;;;;;;;;;5044263;28;20197;-69
2023/05/01 10:26:33;;;;;;;8.10;5.30;;;;;;;;;;5039841;28;20190;-69
2023/05/01 10:29:00;;;;;;;7.97;4.90;;;;;;;;;;5043868;28;20540;-69
2023/05/01 10:31:26;;;;;;;7.75;4.28;;;;;;;;;;5037494;28;20205;-68
2023/05/01 10:33:53;;;;;;;6.35;4.38;;;;;;;;;;5038429;28;20300;-68
2023/05/01 10:36:24;;;;;;;7.47;4.60;;;;;;;;;;5039305;28;20181;-68
2023/05/01 10:38:49;;;;;;;8.45;4.40;;;;;;;;;;5034748;28;20185;-67
2023/05/01 10:41:15;;;;;;;8.57;4.13;;;;;;;;;;5043767;28;20674;-68
2023/05/01 10:43:41;;;;;;;6.13;4.53;;;;;;;;;;5037122;28;20730;-68
2023/05/01 10:46:07;;;;;;;10.00;4.72;;;;;;;;;;5029084;28;20234;-68
2023/05/01 10:48:38;;;;;;;10.63;4.65;;;;;;;;;;5040069;28;20632;-69
2023/05/01 10:51:23;;;;;;;6.97;4.40;;;;;;;;;;5050071;28;20224;-68
2023/05/01 10:54:21;;;;;;;8.48;4.55;;;;;;;;;;5038089;28;20185;-68
2023/05/01 10:56:46;;;;;;;7.05;4.65;;;;;;;;;;5040051;28;20292;-68
2023/05/01 10:59:12;;;;;;;8.10;5.05;;;;;;;;;;5038402;28;20261;-68
2023/05/01 11:01:39;;;;;;;8.30;4.38;;;;;;;;;;5040726;28;20216;-68
2023/05/01 11:04:26;;;;;;;9.43;4.28;;;;;;;;;;5038474;28;20197;-68
2023/05/01 11:07:01;;;;;;;7.78;4.30;;;;;;;;;;5038404;28;20308;-68
2023/05/01 11:09:36;;;;;;;8.63;4.57;;;;;;;;;;5045999;28;20192;-69
2023/05/01 11:12:02;;;;;;;6.55;4.30;;;;;;;;;;5041718;28;20837;-68
2023/05/01 11:14:27;;;;;;;8.52;4.35;;;;;;;;;;5046169;28;20308;-68
2023/05/01 11:16:52;;;;;;;10.00;4.40;;;;;;;;;;5045061;28;20718;-67
2023/05/01 11:19:21;;;;;;;6.78;4.78;;;;;;;;;;5046448;28;20249;-68
2023/05/01 11:21:47;;;;;;;5.25;4.20;;;;;;;;;;5047132;28;20505;-69
2023/05/01 11:24:13;;;;;;;7.18;4.13;;;;;;;;;;5047625;28;20280;-68
2023/05/01 11:26:40;;;;;;;7.95;5.00;;;;;;;;;;5046783;28;20204;-68
2023/05/01 11:29:07;;;;;;;7.57;4.95;;;;;;;;;;5045389;28;20276;-68
2023/05/01 11:31:32;;;;;;;9.70;5.18;;;;;;;;;;5058718;28;20635;-68
2023/05/01 11:33:59;;;;;;;7.55;4.88;;;;;;;;;;5047828;28;20268;-68
2023/05/01 11:36:26;;;;;;;8.20;4.90;;;;;;;;;;5051474;28;20282;-68
2023/05/01 11:38:57;;;;;;;9.73;5.18;;;;;;;;;;5054521;28;20195;-68
2023/05/01 11:41:23;;;;;;;7.75;4.80;;;;;;;;;;5045818;28;20410;-69
2023/05/01 11:43:57;;;;;;;7.60;5.85;;;;;;;;;;5039892;28;20300;-69
2023/05/01 11:46:27;;;;;;;8.15;5.47;;;;;;;;;;5047570;28;20704;-70
2023/05/01 11:48:53;;;;;;;10.55;5.60;;;;;;;;;;5047693;28;20186;-69
2023/05/01 11:51:19;;;;;;;8.65;5.25;;;;;;;;;;5047753;28;20232;-69
2023/05/01 11:54:00;;;;;;;12.95;6.00;;;;;;;;;;5046611;28;20189;-69
2023/05/01 11:56:26;;;;;;;7.80;5.68;;;;;;;;;;5048479;28;20185;-69
2023/05/01 11:58:53;;;;;;;10.93;6.65;;;;;;;;;;5044746;28;20525;-69
2023/05/01 12:01:18;;;;;;;12.10;5.78;;;;;;;;;;5036435;28;20304;-69
2023/05/01 12:03:43;;;;;;;9.52;5.35;;;;;;;;;;5043862;28;20734;-68
2023/05/01 12:06:12;;;;;;;8.75;5.65;;;;;;;;;;5046730;28;20289;-69
2023/05/01 12:08:42;;;;;;;9.05;5.15;;;;;;;;;;5047070;28;20186;-69
2023/05/01 12:11:07;;;;;;;7.35;4.63;;;;;;;;;;5038030;28;20696;-68
2023/05/01 12:13:33;;;;;;;9.02;4.35;;;;;;;;;;5049147;28;20273;-69
2023/05/01 12:15:59;;;;;;;8.85;4.75;;;;;;;;;;4344979;28;10000805;-68
2023/05/01 12:18:25;;;;;;;6.88;4.63;;;;;;;;;;5039097;28;20182;-68
2023/05/01 12:20:53;;;;;;;6.85;4.07;;;;;;;;;;5046111;28;20501;-70
2023/05/01 12:23:30;;;;;;;6.03;3.70;;;;;;;;;;5045460;28;20209;-68
2023/05/01 12:25:56;;;;;;;5.47;3.97;;;;;;;;;;5040091;28;20268;-68
2023/05/01 12:28:21;;;;;;;8.15;4.57;;;;;;;;;;5041792;28;20224;-67
2023/05/01 12:30:50;;;;;;;8.85;4.45;;;;;;;;;;5031706;28;20224;-68
2023/05/01 12:33:20;;;;;;;6.47;3.95;;;;;;;;;;5042045;28;20549;-68
2023/05/01 12:35:47;;;;;;;6.40;4.50;;;;;;;;;;5036001;28;20289;-68
2023/05/01 12:38:17;;;;;;;7.15;3.90;;;;;;;;;;5043856;28;20294;-68
2023/05/01 12:40:55;;;;;;;4.85;3.33;;;;;;;;;;5043196;28;20192;-68
2023/05/01 12:43:29;;;;;;;6.13;3.97;;;;;;;;;;5041127;28;20192;-68
2023/05/01 12:45:55;;;;;;;4.60;3.72;;;;;;;;;;5038539;28;20791;-68
2023/05/01 12:48:21;;;;;;;6.80;3.88;;;;;;;;;;5044881;28;20197;-69
2023/05/01 12:50:53;;;;;;;6.07;3.65;;;;;;;;;;5035867;28;20240;-70
2023/05/01 12:53:20;;;;;;;6.18;3.78;;;;;;;;;;5042018;28;20213;-70
2023/05/01 12:55:47;;;;;;;6.03;3.75;;;;;;;;;;5045073;28;20300;-71
2023/05/01 12:58:13;;;;;;;6.60;4.40;;;;;;;;;;5046451;28;20182;-68
2023/05/01 13:00:47;;;;;;;7.28;4.18;;;;;;;;;;5046092;28;20235;-68
2023/05/01 13:03:15;;;;;;;10.98;4.82;;;;;;;;;;5038410;28;20190;-68
2023/05/01 13:06:00;;;;;;;8.63;5.07;;;;;;;;;;5042745;28;20267;-69
2023/05/01 13:08:33;;;;;;;10.70;5.63;;;;;;;;;;5034061;28;20197;-69
2023/05/01 13:11:01;;;;;;;8.77;5.05;;;;;;;;;;5029902;28;20412;-69
2023/05/01 13:13:30;;;;;;;6.75;4.65;;;;;;;;;;5036540;28;20203;-70
2023/05/01 13:16:23;;;;;;;8.77;4.90;;;;;;;;;;5043202;28;20193;-69
2023/05/01 13:18:51;;;;;;;8.45;4.22;;;;;;;;;;5040868;28;20264;-69
2023/05/01 13:21:21;;;;;;;8.85;4.18;;;;;;;;;;5040066;28;20621;-69
2023/05/01 13:23:55;;;;;;;6.43;3.92;;;;;;;;;;5033351;28;20277;-69
2023/05/01 13:26:31;;;;;;;6.90;3.92;;;;;;;;;;5044412;28;20258;-68
2023/05/01 13:28:58;;;;;;;4.55;3.05;;;;;;;;;;5036049;28;20630;-69
2023/05/01 13:31:24;;;;;;;4.95;3.17;;;;;;;;;;5035424;28;20645;-69
2023/05/01 13:33:52;;;;;;;6.20;2.78;;;;;;;;;;5041106;28;20182;-69
2023/05/01 13:36:18;;;;;;;5.78;3.28;;;;;;;;;;5034574;28;20198;-69
2023/05/01 13:38:46;;;;;;;8.82;3.20;;;;;;;;;;5044825;28;20204;-68
2023/05/01 13:41:19;;;;;;;5.10;3.13;;;;;;;;;;5043617;28;20656;-68
2023/05/01 13:43:46;;;;;;;3.35;2.83;;;;;;;;;;5043139;28;20707;-68
2023/05/01 13:46:14;;;;;;;5.38;3.17;;;;;;;;;;5041670;28;20228;-68
2023/05/01 13:48:40;;;;;;;5.43;2.83;;;;;;;;;;5042730;28;20948;-68
2023/05/01 13:51:07;;;;;;;3.80;2.80;;;;;;;;;;5039201;28;20277;-69
2023/05/01 13:53:33;;;;;;;7.03;2.80;;;;;;;;;;5037520;28;20318;-67
2023/05/01 13:55:58;;;;;;;4.32;2.60;;;;;;;;;;5035778;28;20316;-68
2023/05/01 13:58:23;;;;;;;3.92;2.20;;;;;;;;;;5032260;28;20224;-68
2023/05/01 14:00:49;;;;;;;7.63;2.13;;;;;;;;;;5042363;28;20661;-69
2023/05/01 14:03:15;;;;;;;5.30;2.17;;;;;;;;;;5043099;28;20488;-69
2023/05/01 14:05:41;;;;;;;3.90;2.03;;;;;;;;;;5042282;28;20193;-68
2023/05/01 14:08:07;;;;;;;5.38;2.08;;;;;;;;;;5039021;28;20674;-69
2023/05/01 14:10:33;;;;;;;2.95;1.83;;;;;;;;;;5039771;28;20240;-68
2023/05/01 14:12:59;;;;;;;5.35;2.33;;;;;;;;;;5036229;28;20324;-67
2023/05/01 14:15:25;;;;;;;3.70;1.90;;;;;;;;;;5034779;28;20197;-68
2023/05/01 14:17:51;;;;;;;2.95;1.60;;;;;;;;;;5037821;28;20189;-70
2023/05/01 14:20:17;;;;;;;2.92;2.05;;;;;;;;;;5043898;28;20276;-69
2023/05/01 14:22:44;;;;;;;2.20;1.40;;;;;;;;;;5033876;28;20261;-68
2023/05/01 14:25:47;;;;;;;4.40;2.00;;;;;;;;;;5041028;28;20189;-69
2023/05/01 14:28:13;;;;;;;4.88;1.80;;;;;;;;;;5021920;28;20455;-69
2023/05/01 14:30:39;;;;;;;3.75;1.95;;;;;;;;;;5043935;28;20205;-70
2023/05/01 14:33:12;;;;;;;3.33;1.95;;;;;;;;;;5043287;28;20208;-69
2023/05/01 14:35:51;;;;;;;4.32;1.80;;;;;;;;;;5040639;28;20178;-68
2023/05/01 14:38:18;;;;;;;3.97;1.92;;;;;;;;;;5044154;28;20201;-68
2023/05/01 14:40:44;;;;;;;3.28;2.30;;;;;;;;;;5042677;28;20558;-68